sensor_id;sensor_type;location;lat;lon;timestamp;P1;durP1;ratioP1;P2;durP2;ratioP2
8716;SDS011;4395;48.554;8.820;2022-12-18T00:00:33;49.22;;;32.67;;
8716;SDS011;4395;48.554;8.820;2022-12-18T00:02:36;50.03;;;33.55;;
8716;SDS011;4395;48.554;8.820;2022-12-18T00:04:40;51.33;;;33.58;;
8716;SDS011;4395;48.554;8.820;2022-12-18T00:06:45;49.55;;;33.75;;
8716;SDS011;4395;48.554;8.820;2022-12-18T00:08:48;51.78;;;32.55;;
8716;SDS011;4395;48.554;8.820;2022-12-18T00:10:52;49.15;;;35.28;;
8716;SDS011;4395;48.554;8.820;2022-12-18T00:13:00;56.15;;;35.75;;
8716;SDS011;4395;48.554;8.820;2022-12-18T00:15:10;60.35;;;40.67;;
8716;SDS011;4395;48.554;8.820;2022-12-18T00:17:13;55.70;;;35.03;;
8716;SDS011;4395;48.554;8.820;2022-12-18T00:19:16;56.63;;;36.72;;
8716;SDS011;4395;48.554;8.820;2022-12-18T00:21:20;52.25;;;34.75;;
8716;SDS011;4395;48.554;8.820;2022-12-18T00:23:25;45.85;;;29.27;;
8716;SDS011;4395;48.554;8.820;2022-12-18T00:25:29;43.47;;;30.80;;
8716;SDS011;4395;48.554;8.820;2022-12-18T00:27:32;39.75;;;28.08;;
8716;SDS011;4395;48.554;8.820;2022-12-18T00:29:35;45.05;;;29.30;;
8716;SDS011;4395;48.554;8.820;2022-12-18T00:31:44;42.17;;;29.33;;
8716;SDS011;4395;48.554;8.820;2022-12-18T00:33:48;47.83;;;31.85;;
8716;SDS011;4395;48.554;8.820;2022-12-18T00:35:59;49.15;;;32.55;;
8716;SDS011;4395;48.554;8.820;2022-12-18T00:38:06;52.10;;;32.95;;
8716;SDS011;4395;48.554;8.820;2022-12-18T00:40:11;47.97;;;32.40;;
8716;SDS011;4395;48.554;8.820;2022-12-18T00:42:15;53.35;;;34.35;;
8716;SDS011;4395;48.554;8.820;2022-12-18T00:44:36;52.15;;;35.13;;
8716;SDS011;4395;48.554;8.820;2022-12-18T00:46:39;51.60;;;35.08;;
8716;SDS011;4395;48.554;8.820;2022-12-18T00:48:43;51.92;;;35.53;;
8716;SDS011;4395;48.554;8.820;2022-12-18T00:50:47;50.22;;;33.72;;
8716;SDS011;4395;48.554;8.820;2022-12-18T00:52:51;51.80;;;35.85;;
8716;SDS011;4395;48.554;8.820;2022-12-18T00:54:54;53.97;;;36.45;;
8716;SDS011;4395;48.554;8.820;2022-12-18T00:57:06;54.45;;;35.40;;
8716;SDS011;4395;48.554;8.820;2022-12-18T00:59:09;50.47;;;34.50;;
8716;SDS011;4395;48.554;8.820;2022-12-18T01:01:13;50.60;;;32.30;;
8716;SDS011;4395;48.554;8.820;2022-12-18T01:03:16;49.20;;;32.53;;
8716;SDS011;4395;48.554;8.820;2022-12-18T01:05:20;59.65;;;39.38;;
8716;SDS011;4395;48.554;8.820;2022-12-18T01:07:25;53.42;;;35.22;;
8716;SDS011;4395;48.554;8.820;2022-12-18T01:09:28;44.88;;;30.60;;
8716;SDS011;4395;48.554;8.820;2022-12-18T01:11:31;45.92;;;31.15;;
8716;SDS011;4395;48.554;8.820;2022-12-18T01:13:36;47.97;;;32.33;;
8716;SDS011;4395;48.554;8.820;2022-12-18T01:15:47;43.15;;;29.20;;
8716;SDS011;4395;48.554;8.820;2022-12-18T01:17:51;41.72;;;29.25;;
8716;SDS011;4395;48.554;8.820;2022-12-18T01:19:55;45.13;;;28.65;;
8716;SDS011;4395;48.554;8.820;2022-12-18T01:21:58;47.30;;;32.22;;
8716;SDS011;4395;48.554;8.820;2022-12-18T01:24:02;58.85;;;36.65;;
8716;SDS011;4395;48.554;8.820;2022-12-18T01:26:08;55.63;;;34.28;;
8716;SDS011;4395;48.554;8.820;2022-12-18T01:28:14;47.58;;;31.35;;
8716;SDS011;4395;48.554;8.820;2022-12-18T01:30:19;45.70;;;29.52;;
8716;SDS011;4395;48.554;8.820;2022-12-18T01:32:22;45.17;;;28.80;;
8716;SDS011;4395;48.554;8.820;2022-12-18T01:34:25;39.83;;;25.25;;
8716;SDS011;4395;48.554;8.820;2022-12-18T01:36:30;39.45;;;26.20;;
8716;SDS011;4395;48.554;8.820;2022-12-18T01:38:35;42.90;;;26.83;;
8716;SDS011;4395;48.554;8.820;2022-12-18T01:40:39;37.38;;;23.90;;
8716;SDS011;4395;48.554;8.820;2022-12-18T01:42:43;34.83;;;23.30;;
8716;SDS011;4395;48.554;8.820;2022-12-18T01:45:00;37.10;;;23.10;;
8716;SDS011;4395;48.554;8.820;2022-12-18T01:47:13;33.20;;;21.90;;
8716;SDS011;4395;48.554;8.820;2022-12-18T01:49:21;32.67;;;23.17;;
8716;SDS011;4395;48.554;8.820;2022-12-18T01:51:24;31.90;;;21.38;;
8716;SDS011;4395;48.554;8.820;2022-12-18T01:53:29;31.35;;;20.38;;
8716;SDS011;4395;48.554;8.820;2022-12-18T01:55:35;29.38;;;20.70;;
8716;SDS011;4395;48.554;8.820;2022-12-18T01:57:45;32.10;;;21.38;;
8716;SDS011;4395;48.554;8.820;2022-12-18T01:59:52;33.50;;;21.02;;
8716;SDS011;4395;48.554;8.820;2022-12-18T02:01:56;33.58;;;22.10;;
8716;SDS011;4395;48.554;8.820;2022-12-18T02:06:26;37.40;;;24.50;;
8716;SDS011;4395;48.554;8.820;2022-12-18T02:08:38;41.67;;;26.67;;
8716;SDS011;4395;48.554;8.820;2022-12-18T02:10:51;37.05;;;23.85;;
8716;SDS011;4395;48.554;8.820;2022-12-18T02:13:07;34.95;;;22.85;;
8716;SDS011;4395;48.554;8.820;2022-12-18T02:15:18;38.03;;;23.80;;
8716;SDS011;4395;48.554;8.820;2022-12-18T02:17:29;35.88;;;23.38;;
8716;SDS011;4395;48.554;8.820;2022-12-18T02:19:43;42.90;;;25.88;;
8716;SDS011;4395;48.554;8.820;2022-12-18T02:22:06;36.95;;;24.75;;
8716;SDS011;4395;48.554;8.820;2022-12-18T02:24:28;35.88;;;24.30;;
8716;SDS011;4395;48.554;8.820;2022-12-18T02:26:40;44.08;;;27.88;;
8716;SDS011;4395;48.554;8.820;2022-12-18T02:28:49;44.97;;;27.95;;
8716;SDS011;4395;48.554;8.820;2022-12-18T02:30:57;42.20;;;26.42;;
8716;SDS011;4395;48.554;8.820;2022-12-18T02:33:06;41.05;;;25.13;;
8716;SDS011;4395;48.554;8.820;2022-12-18T02:35:12;41.10;;;25.15;;
8716;SDS011;4395;48.554;8.820;2022-12-18T02:37:21;45.95;;;25.25;;
8716;SDS011;4395;48.554;8.820;2022-12-18T02:39:27;59.70;;;26.52;;
8716;SDS011;4395;48.554;8.820;2022-12-18T02:41:39;44.28;;;23.15;;
8716;SDS011;4395;48.554;8.820;2022-12-18T02:43:52;49.90;;;25.35;;
8716;SDS011;4395;48.554;8.820;2022-12-18T02:46:00;45.65;;;26.30;;
8716;SDS011;4395;48.554;8.820;2022-12-18T02:48:30;55.30;;;34.63;;
8716;SDS011;4395;48.554;8.820;2022-12-18T02:50:37;54.30;;;34.22;;
8716;SDS011;4395;48.554;8.820;2022-12-18T02:52:49;44.05;;;27.08;;
8716;SDS011;4395;48.554;8.820;2022-12-18T02:55:10;39.95;;;25.63;;
8716;SDS011;4395;48.554;8.820;2022-12-18T02:57:31;47.03;;;25.95;;
8716;SDS011;4395;48.554;8.820;2022-12-18T02:59:40;46.28;;;25.17;;
8716;SDS011;4395;48.554;8.820;2022-12-18T03:01:53;39.50;;;22.77;;
8716;SDS011;4395;48.554;8.820;2022-12-18T03:04:04;42.88;;;24.50;;
8716;SDS011;4395;48.554;8.820;2022-12-18T03:06:12;42.50;;;23.20;;
8716;SDS011;4395;48.554;8.820;2022-12-18T03:08:24;44.13;;;23.30;;
8716;SDS011;4395;48.554;8.820;2022-12-18T03:10:34;45.17;;;23.48;;
8716;SDS011;4395;48.554;8.820;2022-12-18T03:12:44;43.00;;;22.20;;
8716;SDS011;4395;48.554;8.820;2022-12-18T03:14:56;43.25;;;22.45;;
8716;SDS011;4395;48.554;8.820;2022-12-18T03:17:05;38.30;;;22.00;;
8716;SDS011;4395;48.554;8.820;2022-12-18T03:19:18;41.05;;;21.25;;
8716;SDS011;4395;48.554;8.820;2022-12-18T03:21:33;41.45;;;22.58;;
8716;SDS011;4395;48.554;8.820;2022-12-18T03:23:43;44.53;;;22.70;;
8716;SDS011;4395;48.554;8.820;2022-12-18T03:25:54;43.80;;;23.95;;
8716;SDS011;4395;48.554;8.820;2022-12-18T03:28:12;49.78;;;25.50;;
8716;SDS011;4395;48.554;8.820;2022-12-18T03:30:18;49.13;;;27.77;;
8716;SDS011;4395;48.554;8.820;2022-12-18T03:32:23;51.53;;;27.58;;
8716;SDS011;4395;48.554;8.820;2022-12-18T03:34:34;65.45;;;35.45;;
8716;SDS011;4395;48.554;8.820;2022-12-18T03:36:43;51.60;;;28.27;;
8716;SDS011;4395;48.554;8.820;2022-12-18T03:38:48;46.00;;;26.83;;
8716;SDS011;4395;48.554;8.820;2022-12-18T03:40:53;50.35;;;27.00;;
8716;SDS011;4395;48.554;8.820;2022-12-18T03:43:07;42.95;;;24.15;;
8716;SDS011;4395;48.554;8.820;2022-12-18T03:45:19;42.50;;;23.17;;
8716;SDS011;4395;48.554;8.820;2022-12-18T03:47:27;38.75;;;22.05;;
8716;SDS011;4395;48.554;8.820;2022-12-18T03:49:38;39.63;;;22.80;;
8716;SDS011;4395;48.554;8.820;2022-12-18T03:51:50;40.22;;;23.08;;
8716;SDS011;4395;48.554;8.820;2022-12-18T03:54:00;45.22;;;22.45;;
8716;SDS011;4395;48.554;8.820;2022-12-18T03:56:13;46.00;;;23.65;;
8716;SDS011;4395;48.554;8.820;2022-12-18T03:58:22;44.42;;;22.52;;
8716;SDS011;4395;48.554;8.820;2022-12-18T04:00:36;42.70;;;23.08;;
8716;SDS011;4395;48.554;8.820;2022-12-18T04:02:42;59.80;;;31.10;;
8716;SDS011;4395;48.554;8.820;2022-12-18T04:04:56;48.65;;;23.08;;
8716;SDS011;4395;48.554;8.820;2022-12-18T04:07:03;42.33;;;22.60;;
8716;SDS011;4395;48.554;8.820;2022-12-18T04:09:10;53.20;;;29.10;;
8716;SDS011;4395;48.554;8.820;2022-12-18T04:11:24;45.78;;;24.70;;
8716;SDS011;4395;48.554;8.820;2022-12-18T04:13:31;47.67;;;25.45;;
8716;SDS011;4395;48.554;8.820;2022-12-18T04:15:43;42.20;;;21.90;;
8716;SDS011;4395;48.554;8.820;2022-12-18T04:17:49;43.42;;;22.50;;
8716;SDS011;4395;48.554;8.820;2022-12-18T04:19:56;46.30;;;23.35;;
8716;SDS011;4395;48.554;8.820;2022-12-18T04:22:00;41.00;;;23.40;;
8716;SDS011;4395;48.554;8.820;2022-12-18T04:24:08;40.53;;;23.60;;
8716;SDS011;4395;48.554;8.820;2022-12-18T04:26:16;43.38;;;23.60;;
8716;SDS011;4395;48.554;8.820;2022-12-18T04:28:30;42.45;;;23.58;;
8716;SDS011;4395;48.554;8.820;2022-12-18T04:30:34;40.90;;;23.17;;
8716;SDS011;4395;48.554;8.820;2022-12-18T04:32:37;38.15;;;21.33;;
8716;SDS011;4395;48.554;8.820;2022-12-18T04:34:42;41.25;;;22.67;;
8716;SDS011;4395;48.554;8.820;2022-12-18T04:36:46;39.40;;;22.08;;
8716;SDS011;4395;48.554;8.820;2022-12-18T04:38:49;42.30;;;23.08;;
8716;SDS011;4395;48.554;8.820;2022-12-18T04:40:54;37.58;;;21.80;;
8716;SDS011;4395;48.554;8.820;2022-12-18T04:43:00;45.92;;;23.42;;
8716;SDS011;4395;48.554;8.820;2022-12-18T04:45:06;48.38;;;24.20;;
8716;SDS011;4395;48.554;8.820;2022-12-18T04:47:11;52.50;;;25.20;;
8716;SDS011;4395;48.554;8.820;2022-12-18T04:49:14;56.08;;;26.00;;
8716;SDS011;4395;48.554;8.820;2022-12-18T04:51:17;56.88;;;26.20;;
8716;SDS011;4395;48.554;8.820;2022-12-18T04:53:27;60.50;;;25.70;;
8716;SDS011;4395;48.554;8.820;2022-12-18T04:55:35;52.80;;;25.98;;
8716;SDS011;4395;48.554;8.820;2022-12-18T04:57:39;60.00;;;25.90;;
8716;SDS011;4395;48.554;8.820;2022-12-18T04:59:42;58.03;;;26.00;;
8716;SDS011;4395;48.554;8.820;2022-12-18T05:01:47;58.50;;;26.70;;
8716;SDS011;4395;48.554;8.820;2022-12-18T05:03:50;60.78;;;28.13;;
8716;SDS011;4395;48.554;8.820;2022-12-18T05:05:54;58.97;;;27.88;;
8716;SDS011;4395;48.554;8.820;2022-12-18T05:07:57;59.70;;;29.95;;
8716;SDS011;4395;48.554;8.820;2022-12-18T05:10:01;65.95;;;32.42;;
8716;SDS011;4395;48.554;8.820;2022-12-18T05:12:08;60.85;;;28.90;;
8716;SDS011;4395;48.554;8.820;2022-12-18T05:14:11;53.70;;;27.67;;
8716;SDS011;4395;48.554;8.820;2022-12-18T05:16:15;54.38;;;28.85;;
8716;SDS011;4395;48.554;8.820;2022-12-18T05:18:20;53.10;;;28.02;;
8716;SDS011;4395;48.554;8.820;2022-12-18T05:20:23;50.45;;;26.60;;
8716;SDS011;4395;48.554;8.820;2022-12-18T05:22:28;55.50;;;26.00;;
8716;SDS011;4395;48.554;8.820;2022-12-18T05:24:32;49.38;;;25.42;;
8716;SDS011;4395;48.554;8.820;2022-12-18T05:26:35;52.13;;;27.80;;
8716;SDS011;4395;48.554;8.820;2022-12-18T05:28:38;47.35;;;25.40;;
8716;SDS011;4395;48.554;8.820;2022-12-18T05:30:42;47.92;;;26.10;;
8716;SDS011;4395;48.554;8.820;2022-12-18T05:32:45;47.17;;;24.83;;
8716;SDS011;4395;48.554;8.820;2022-12-18T05:34:50;47.65;;;24.55;;
8716;SDS011;4395;48.554;8.820;2022-12-18T05:36:53;47.53;;;24.77;;
8716;SDS011;4395;48.554;8.820;2022-12-18T05:38:56;43.88;;;24.30;;
8716;SDS011;4395;48.554;8.820;2022-12-18T05:41:01;45.00;;;24.85;;
8716;SDS011;4395;48.554;8.820;2022-12-18T05:43:06;45.38;;;25.15;;
8716;SDS011;4395;48.554;8.820;2022-12-18T05:45:11;46.88;;;25.77;;
8716;SDS011;4395;48.554;8.820;2022-12-18T05:47:15;49.13;;;25.80;;
8716;SDS011;4395;48.554;8.820;2022-12-18T05:49:18;43.45;;;24.42;;
8716;SDS011;4395;48.554;8.820;2022-12-18T05:51:23;43.53;;;25.25;;
8716;SDS011;4395;48.554;8.820;2022-12-18T05:53:27;48.80;;;25.30;;
8716;SDS011;4395;48.554;8.820;2022-12-18T05:55:32;42.90;;;24.85;;
8716;SDS011;4395;48.554;8.820;2022-12-18T05:57:36;39.08;;;23.42;;
8716;SDS011;4395;48.554;8.820;2022-12-18T05:59:39;42.65;;;22.95;;
8716;SDS011;4395;48.554;8.820;2022-12-18T06:01:42;41.78;;;23.60;;
8716;SDS011;4395;48.554;8.820;2022-12-18T06:03:46;44.67;;;24.33;;
8716;SDS011;4395;48.554;8.820;2022-12-18T06:05:50;40.83;;;21.90;;
8716;SDS011;4395;48.554;8.820;2022-12-18T06:07:55;38.47;;;22.83;;
8716;SDS011;4395;48.554;8.820;2022-12-18T06:09:58;45.80;;;24.40;;
8716;SDS011;4395;48.554;8.820;2022-12-18T06:12:02;42.65;;;22.90;;
8716;SDS011;4395;48.554;8.820;2022-12-18T06:14:06;52.80;;;25.58;;
8716;SDS011;4395;48.554;8.820;2022-12-18T06:16:09;49.65;;;25.45;;
8716;SDS011;4395;48.554;8.820;2022-12-18T06:18:13;53.20;;;26.30;;
8716;SDS011;4395;48.554;8.820;2022-12-18T06:20:17;46.83;;;25.98;;
8716;SDS011;4395;48.554;8.820;2022-12-18T06:22:21;48.72;;;26.08;;
8716;SDS011;4395;48.554;8.820;2022-12-18T06:24:26;53.30;;;28.45;;
8716;SDS011;4395;48.554;8.820;2022-12-18T06:26:30;54.90;;;28.45;;
8716;SDS011;4395;48.554;8.820;2022-12-18T06:28:33;62.13;;;31.95;;
8716;SDS011;4395;48.554;8.820;2022-12-18T06:30:36;68.35;;;31.67;;
8716;SDS011;4395;48.554;8.820;2022-12-18T06:32:40;70.50;;;34.97;;
8716;SDS011;4395;48.554;8.820;2022-12-18T06:34:44;75.07;;;33.08;;
8716;SDS011;4395;48.554;8.820;2022-12-18T06:36:47;72.35;;;31.17;;
8716;SDS011;4395;48.554;8.820;2022-12-18T06:38:51;78.10;;;33.15;;
8716;SDS011;4395;48.554;8.820;2022-12-18T06:40:56;73.40;;;35.85;;
8716;SDS011;4395;48.554;8.820;2022-12-18T06:42:59;68.13;;;33.75;;
8716;SDS011;4395;48.554;8.820;2022-12-18T06:45:03;65.70;;;32.22;;
8716;SDS011;4395;48.554;8.820;2022-12-18T06:47:07;60.83;;;28.25;;
8716;SDS011;4395;48.554;8.820;2022-12-18T06:49:10;54.45;;;28.27;;
8716;SDS011;4395;48.554;8.820;2022-12-18T06:51:15;54.08;;;28.85;;
8716;SDS011;4395;48.554;8.820;2022-12-18T06:53:20;55.40;;;27.33;;
8716;SDS011;4395;48.554;8.820;2022-12-18T06:55:23;49.85;;;26.98;;
8716;SDS011;4395;48.554;8.820;2022-12-18T06:57:28;48.28;;;26.90;;
8716;SDS011;4395;48.554;8.820;2022-12-18T06:59:31;45.95;;;25.42;;
8716;SDS011;4395;48.554;8.820;2022-12-18T07:01:34;46.00;;;24.48;;
8716;SDS011;4395;48.554;8.820;2022-12-18T07:03:38;39.28;;;22.63;;
8716;SDS011;4395;48.554;8.820;2022-12-18T07:05:44;43.03;;;23.33;;
8716;SDS011;4395;48.554;8.820;2022-12-18T07:07:47;58.38;;;31.05;;
8716;SDS011;4395;48.554;8.820;2022-12-18T07:09:51;40.25;;;23.23;;
8716;SDS011;4395;48.554;8.820;2022-12-18T07:11:54;36.42;;;21.88;;
8716;SDS011;4395;48.554;8.820;2022-12-18T07:13:59;36.55;;;22.90;;
8716;SDS011;4395;48.554;8.820;2022-12-18T07:16:04;38.20;;;24.00;;
8716;SDS011;4395;48.554;8.820;2022-12-18T07:18:18;39.97;;;22.73;;
8716;SDS011;4395;48.554;8.820;2022-12-18T07:20:22;37.97;;;22.73;;
8716;SDS011;4395;48.554;8.820;2022-12-18T07:22:25;38.33;;;21.80;;
8716;SDS011;4395;48.554;8.820;2022-12-18T07:24:28;39.78;;;23.00;;
8716;SDS011;4395;48.554;8.820;2022-12-18T07:26:32;39.65;;;24.27;;
8716;SDS011;4395;48.554;8.820;2022-12-18T07:28:39;39.10;;;23.23;;
8716;SDS011;4395;48.554;8.820;2022-12-18T07:30:45;37.47;;;21.90;;
8716;SDS011;4395;48.554;8.820;2022-12-18T07:32:48;39.47;;;22.55;;
8716;SDS011;4395;48.554;8.820;2022-12-18T07:34:51;37.72;;;21.20;;
8716;SDS011;4395;48.554;8.820;2022-12-18T07:36:54;37.60;;;23.20;;
8716;SDS011;4395;48.554;8.820;2022-12-18T07:38:58;42.13;;;23.77;;
8716;SDS011;4395;48.554;8.820;2022-12-18T07:41:01;23.80;;;15.00;;
8716;SDS011;4395;48.554;8.820;2022-12-18T07:43:07;35.38;;;22.85;;
8716;SDS011;4395;48.554;8.820;2022-12-18T07:45:10;38.47;;;20.33;;
8716;SDS011;4395;48.554;8.820;2022-12-18T07:47:15;32.33;;;20.55;;
8716;SDS011;4395;48.554;8.820;2022-12-18T07:49:18;41.35;;;28.15;;
8716;SDS011;4395;48.554;8.820;2022-12-18T07:51:21;40.03;;;25.35;;
8716;SDS011;4395;48.554;8.820;2022-12-18T07:53:24;42.33;;;28.55;;
8716;SDS011;4395;48.554;8.820;2022-12-18T07:55:28;35.78;;;23.70;;
8716;SDS011;4395;48.554;8.820;2022-12-18T07:57:51;41.22;;;29.08;;
8716;SDS011;4395;48.554;8.820;2022-12-18T08:00:01;40.42;;;26.38;;
8716;SDS011;4395;48.554;8.820;2022-12-18T08:02:12;38.03;;;23.17;;
8716;SDS011;4395;48.554;8.820;2022-12-18T08:04:17;48.72;;;28.60;;
8716;SDS011;4395;48.554;8.820;2022-12-18T08:06:20;41.50;;;25.92;;
8716;SDS011;4395;48.554;8.820;2022-12-18T08:08:25;36.05;;;22.35;;
8716;SDS011;4395;48.554;8.820;2022-12-18T08:10:28;38.38;;;24.73;;
8716;SDS011;4395;48.554;8.820;2022-12-18T08:12:31;60.70;;;40.83;;
8716;SDS011;4395;48.554;8.820;2022-12-18T08:14:35;37.53;;;24.45;;
8716;SDS011;4395;48.554;8.820;2022-12-18T08:16:38;39.30;;;22.80;;
8716;SDS011;4395;48.554;8.820;2022-12-18T08:18:43;57.78;;;33.03;;
8716;SDS011;4395;48.554;8.820;2022-12-18T08:20:46;56.15;;;33.35;;
8716;SDS011;4395;48.554;8.820;2022-12-18T08:22:50;39.60;;;25.13;;
8716;SDS011;4395;48.554;8.820;2022-12-18T08:24:53;33.38;;;20.70;;
8716;SDS011;4395;48.554;8.820;2022-12-18T08:26:56;38.17;;;21.95;;
8716;SDS011;4395;48.554;8.820;2022-12-18T08:29:19;41.53;;;24.13;;
8716;SDS011;4395;48.554;8.820;2022-12-18T08:31:23;50.92;;;27.95;;
8716;SDS011;4395;48.554;8.820;2022-12-18T08:33:28;43.83;;;25.35;;
8716;SDS011;4395;48.554;8.820;2022-12-18T08:35:35;51.20;;;27.33;;
8716;SDS011;4395;48.554;8.820;2022-12-18T08:37:46;70.47;;;34.75;;
8716;SDS011;4395;48.554;8.820;2022-12-18T08:39:49;84.25;;;39.25;;
8716;SDS011;4395;48.554;8.820;2022-12-18T08:41:52;79.20;;;36.83;;
8716;SDS011;4395;48.554;8.820;2022-12-18T08:44:13;78.75;;;37.55;;
8716;SDS011;4395;48.554;8.820;2022-12-18T08:46:34;45.80;;;26.33;;
8716;SDS011;4395;48.554;8.820;2022-12-18T08:48:40;40.65;;;24.02;;
8716;SDS011;4395;48.554;8.820;2022-12-18T08:50:44;41.90;;;25.25;;
8716;SDS011;4395;48.554;8.820;2022-12-18T08:52:57;40.20;;;23.92;;
8716;SDS011;4395;48.554;8.820;2022-12-18T08:55:00;35.63;;;21.55;;
8716;SDS011;4395;48.554;8.820;2022-12-18T08:57:03;37.45;;;20.55;;
8716;SDS011;4395;48.554;8.820;2022-12-18T08:59:08;38.70;;;24.55;;
8716;SDS011;4395;48.554;8.820;2022-12-18T09:01:20;48.92;;;27.70;;
8716;SDS011;4395;48.554;8.820;2022-12-18T09:03:24;39.80;;;23.45;;
8716;SDS011;4395;48.554;8.820;2022-12-18T09:05:27;43.58;;;23.58;;
8716;SDS011;4395;48.554;8.820;2022-12-18T09:07:34;38.40;;;22.85;;
8716;SDS011;4395;48.554;8.820;2022-12-18T09:09:37;37.60;;;20.50;;
8716;SDS011;4395;48.554;8.820;2022-12-18T09:11:40;38.50;;;21.30;;
8716;SDS011;4395;48.554;8.820;2022-12-18T09:13:43;58.47;;;31.73;;
8716;SDS011;4395;48.554;8.820;2022-12-18T09:15:47;97.85;;;51.03;;
8716;SDS011;4395;48.554;8.820;2022-12-18T09:17:54;73.70;;;39.78;;
8716;SDS011;4395;48.554;8.820;2022-12-18T09:20:02;44.17;;;26.17;;
8716;SDS011;4395;48.554;8.820;2022-12-18T09:22:06;34.42;;;22.00;;
8716;SDS011;4395;48.554;8.820;2022-12-18T09:24:11;34.72;;;21.33;;
8716;SDS011;4395;48.554;8.820;2022-12-18T09:26:15;34.83;;;21.55;;
8716;SDS011;4395;48.554;8.820;2022-12-18T09:28:19;33.67;;;20.13;;
8716;SDS011;4395;48.554;8.820;2022-12-18T09:30:22;35.90;;;20.75;;
8716;SDS011;4395;48.554;8.820;2022-12-18T09:32:25;33.47;;;19.95;;
8716;SDS011;4395;48.554;8.820;2022-12-18T09:34:28;29.88;;;18.77;;
8716;SDS011;4395;48.554;8.820;2022-12-18T09:36:32;28.23;;;17.83;;
8716;SDS011;4395;48.554;8.820;2022-12-18T09:38:35;31.70;;;17.95;;
8716;SDS011;4395;48.554;8.820;2022-12-18T09:40:41;27.55;;;17.25;;
8716;SDS011;4395;48.554;8.820;2022-12-18T09:42:49;32.28;;;18.45;;
8716;SDS011;4395;48.554;8.820;2022-12-18T09:45:00;26.80;;;16.83;;
8716;SDS011;4395;48.554;8.820;2022-12-18T09:47:07;29.33;;;19.10;;
8716;SDS011;4395;48.554;8.820;2022-12-18T09:49:18;28.52;;;17.55;;
8716;SDS011;4395;48.554;8.820;2022-12-18T09:51:26;30.40;;;18.63;;
8716;SDS011;4395;48.554;8.820;2022-12-18T09:53:35;28.73;;;17.45;;
8716;SDS011;4395;48.554;8.820;2022-12-18T09:55:44;28.92;;;18.23;;
8716;SDS011;4395;48.554;8.820;2022-12-18T09:57:50;29.73;;;17.77;;
8716;SDS011;4395;48.554;8.820;2022-12-18T09:59:58;28.88;;;17.25;;
8716;SDS011;4395;48.554;8.820;2022-12-18T10:02:12;26.95;;;16.52;;
8716;SDS011;4395;48.554;8.820;2022-12-18T10:04:18;27.48;;;16.52;;
8716;SDS011;4395;48.554;8.820;2022-12-18T10:06:23;27.80;;;15.98;;
8716;SDS011;4395;48.554;8.820;2022-12-18T10:08:37;24.00;;;16.63;;
8716;SDS011;4395;48.554;8.820;2022-12-18T10:10:51;30.23;;;18.70;;
8716;SDS011;4395;48.554;8.820;2022-12-18T10:12:58;30.58;;;18.77;;
8716;SDS011;4395;48.554;8.820;2022-12-18T10:15:11;27.85;;;18.52;;
8716;SDS011;4395;48.554;8.820;2022-12-18T10:17:21;40.83;;;23.63;;
8716;SDS011;4395;48.554;8.820;2022-12-18T10:19:34;36.17;;;22.67;;
8716;SDS011;4395;48.554;8.820;2022-12-18T10:21:51;33.78;;;21.60;;
8716;SDS011;4395;48.554;8.820;2022-12-18T10:24:09;30.85;;;19.02;;
8716;SDS011;4395;48.554;8.820;2022-12-18T10:26:23;33.55;;;20.30;;
8716;SDS011;4395;48.554;8.820;2022-12-18T10:28:27;31.13;;;18.98;;
8716;SDS011;4395;48.554;8.820;2022-12-18T10:30:33;29.88;;;19.48;;
8716;SDS011;4395;48.554;8.820;2022-12-18T10:32:36;28.13;;;17.67;;
8716;SDS011;4395;48.554;8.820;2022-12-18T10:34:39;30.67;;;17.80;;
8716;SDS011;4395;48.554;8.820;2022-12-18T10:36:42;30.15;;;18.42;;
8716;SDS011;4395;48.554;8.820;2022-12-18T10:38:46;28.20;;;17.83;;
8716;SDS011;4395;48.554;8.820;2022-12-18T10:40:50;30.67;;;18.60;;
8716;SDS011;4395;48.554;8.820;2022-12-18T10:43:10;30.65;;;18.00;;
8716;SDS011;4395;48.554;8.820;2022-12-18T10:45:16;30.05;;;18.40;;
8716;SDS011;4395;48.554;8.820;2022-12-18T10:47:19;28.33;;;19.05;;
8716;SDS011;4395;48.554;8.820;2022-12-18T10:49:24;31.50;;;19.05;;
8716;SDS011;4395;48.554;8.820;2022-12-18T10:51:31;35.13;;;20.40;;
8716;SDS011;4395;48.554;8.820;2022-12-18T10:53:37;32.65;;;22.15;;
8716;SDS011;4395;48.554;8.820;2022-12-18T10:55:44;31.98;;;21.63;;
8716;SDS011;4395;48.554;8.820;2022-12-18T10:57:49;31.55;;;19.05;;
8716;SDS011;4395;48.554;8.820;2022-12-18T10:59:55;29.98;;;18.88;;
8716;SDS011;4395;48.554;8.820;2022-12-18T11:02:00;28.80;;;19.48;;
8716;SDS011;4395;48.554;8.820;2022-12-18T11:04:07;27.42;;;18.27;;
8716;SDS011;4395;48.554;8.820;2022-12-18T11:06:13;32.08;;;20.40;;
8716;SDS011;4395;48.554;8.820;2022-12-18T11:08:19;32.97;;;22.08;;
8716;SDS011;4395;48.554;8.820;2022-12-18T11:10:26;35.00;;;21.67;;
8716;SDS011;4395;48.554;8.820;2022-12-18T11:12:33;30.00;;;19.55;;
8716;SDS011;4395;48.554;8.820;2022-12-18T11:14:42;31.50;;;19.38;;
8716;SDS011;4395;48.554;8.820;2022-12-18T11:16:50;34.55;;;20.50;;
8716;SDS011;4395;48.554;8.820;2022-12-18T11:19:19;31.92;;;20.00;;
8716;SDS011;4395;48.554;8.820;2022-12-18T11:21:28;29.45;;;19.17;;
8716;SDS011;4395;48.554;8.820;2022-12-18T11:23:32;29.67;;;19.77;;
8716;SDS011;4395;48.554;8.820;2022-12-18T11:25:37;37.88;;;22.27;;
8716;SDS011;4395;48.554;8.820;2022-12-18T11:27:41;33.70;;;22.15;;
8716;SDS011;4395;48.554;8.820;2022-12-18T11:29:52;37.35;;;22.80;;
8716;SDS011;4395;48.554;8.820;2022-12-18T11:32:09;34.67;;;21.77;;
8716;SDS011;4395;48.554;8.820;2022-12-18T11:34:35;36.63;;;21.98;;
8716;SDS011;4395;48.554;8.820;2022-12-18T11:36:39;37.83;;;23.33;;
8716;SDS011;4395;48.554;8.820;2022-12-18T11:38:47;37.38;;;22.33;;
8716;SDS011;4395;48.554;8.820;2022-12-18T11:40:55;36.28;;;22.60;;
8716;SDS011;4395;48.554;8.820;2022-12-18T11:43:04;37.13;;;22.55;;
8716;SDS011;4395;48.554;8.820;2022-12-18T11:45:20;38.03;;;24.80;;
8716;SDS011;4395;48.554;8.820;2022-12-18T11:47:34;38.25;;;24.08;;
8716;SDS011;4395;48.554;8.820;2022-12-18T11:49:44;37.65;;;21.40;;
8716;SDS011;4395;48.554;8.820;2022-12-18T11:51:53;38.80;;;24.42;;
8716;SDS011;4395;48.554;8.820;2022-12-18T11:54:04;43.50;;;28.85;;
8716;SDS011;4395;48.554;8.820;2022-12-18T11:56:22;53.92;;;33.50;;
8716;SDS011;4395;48.554;8.820;2022-12-18T11:58:40;46.70;;;29.20;;
8716;SDS011;4395;48.554;8.820;2022-12-18T12:00:49;48.78;;;30.13;;
8716;SDS011;4395;48.554;8.820;2022-12-18T12:05:44;41.03;;;25.85;;
8716;SDS011;4395;48.554;8.820;2022-12-18T12:08:01;42.35;;;24.80;;
8716;SDS011;4395;48.554;8.820;2022-12-18T12:10:17;18.55;;;7.45;;
8716;SDS011;4395;48.554;8.820;2022-12-18T12:12:39;36.30;;;26.48;;
8716;SDS011;4395;48.554;8.820;2022-12-18T12:14:59;33.65;;;24.35;;
8716;SDS011;4395;48.554;8.820;2022-12-18T12:17:18;31.60;;;22.55;;
8716;SDS011;4395;48.554;8.820;2022-12-18T12:19:38;31.88;;;22.88;;
8716;SDS011;4395;48.554;8.820;2022-12-18T12:21:51;37.08;;;23.30;;
8716;SDS011;4395;48.554;8.820;2022-12-18T12:24:02;35.15;;;24.00;;
8716;SDS011;4395;48.554;8.820;2022-12-18T12:26:16;38.75;;;26.30;;
8716;SDS011;4395;48.554;8.820;2022-12-18T12:28:28;34.85;;;23.30;;
8716;SDS011;4395;48.554;8.820;2022-12-18T12:31:01;34.65;;;21.98;;
8716;SDS011;4395;48.554;8.820;2022-12-18T12:33:20;34.38;;;22.23;;
8716;SDS011;4395;48.554;8.820;2022-12-18T12:35:42;31.45;;;21.80;;
8716;SDS011;4395;48.554;8.820;2022-12-18T12:37:56;30.15;;;18.75;;
8716;SDS011;4395;48.554;8.820;2022-12-18T12:40:10;29.35;;;19.67;;
8716;SDS011;4395;48.554;8.820;2022-12-18T12:42:38;30.17;;;20.13;;
8716;SDS011;4395;48.554;8.820;2022-12-18T12:45:03;33.47;;;21.52;;
8716;SDS011;4395;48.554;8.820;2022-12-18T12:47:13;35.30;;;21.92;;
8716;SDS011;4395;48.554;8.820;2022-12-18T12:49:20;31.73;;;21.02;;
8716;SDS011;4395;48.554;8.820;2022-12-18T12:51:29;33.33;;;21.92;;
8716;SDS011;4395;48.554;8.820;2022-12-18T12:53:38;30.13;;;19.92;;